Time;durP1;ratioP1;P1;durP2;ratioP2;P2;SDS_P1;SDS_P2;PMS_P1;PMS_P2;Temp;Humidity;BMP_temperature;BMP_pressure;BME280_temperature;BME280_humidity;BME280_pressure;Samples;Min_cycle;Max_cycle;Signal;HPM_P1;HPM_P2
2022/09/05 00:02:24;;;;;;;2.80;1.40;;;16.70;99.90;;;;;;4964925;28;20038;-79
2022/09/05 00:05:16;;;;;;;2.80;1.30;;;16.60;99.90;;;;;;4964724;28;20035;-79
2022/09/05 00:08:03;;;;;;;2.20;0.93;;;16.60;99.90;;;;;;4966241;28;20035;-78
2022/09/05 00:10:51;;;;;;;2.10;1.00;;;16.60;99.90;;;;;;4963966;28;20114;-79
2022/09/05 00:13:36;;;;;;;3.75;1.60;;;16.60;99.90;;;;;;4966235;28;20074;-79
2022/09/05 00:16:29;;;;;;;2.92;1.70;;;16.60;99.90;;;;;;4966494;28;20031;-79
2022/09/05 00:19:23;;;;;;;3.97;2.05;;;16.50;99.90;;;;;;4962310;28;20027;-81
2022/09/05 00:22:16;;;;;;;3.08;1.98;;;16.60;99.90;;;;;;4962336;28;20104;-82
2022/09/05 00:25:00;;;;;;;3.28;1.55;;;16.50;99.90;;;;;;4948105;28;20452;-81
2022/09/05 00:27:28;;;;;;;5.05;1.40;;;16.40;99.90;;;;;;4950200;28;20412;-82
2022/09/05 00:30:02;;;;;;;4.85;1.75;;;16.50;99.90;;;;;;4963912;28;20043;-82
2022/09/05 00:32:27;;;;;;;3.30;1.77;;;16.40;99.90;;;;;;4962897;28;20118;-82
2022/09/05 00:35:27;;;;;;;3.97;2.05;;;16.40;99.90;;;;;;4984507;28;20121;-82
2022/09/05 00:37:53;;;;;;;2.60;1.48;;;16.40;99.90;;;;;;5007375;28;20026;-82
2022/09/05 00:40:19;;;;;;;4.07;2.20;;;16.30;99.90;;;;;;5003325;28;20046;-82
2022/09/05 00:42:48;;;;;;;4.72;1.60;;;16.30;99.90;;;;;;5008269;28;20367;-82
2022/09/05 00:45:23;;;;;;;3.50;2.00;;;16.20;99.90;;;;;;4988240;28;20505;-82
2022/09/05 00:48:19;;;;;;;3.05;1.70;;;16.30;99.90;;;;;;5005535;28;20027;-81
2022/09/05 00:51:16;;;;;;;2.53;1.80;;;16.20;99.90;;;;;;4997540;28;20040;-81
2022/09/05 00:54:00;;;;;;;3.15;1.83;;;16.30;99.90;;;;;;5004735;28;20052;-79
2022/09/05 00:56:44;;;;;;;3.97;1.92;;;16.20;99.90;;;;;;5006039;28;20112;-79
2022/09/05 00:59:28;;;;;;;3.22;2.15;;;16.20;99.90;;;;;;5005918;28;20018;-79
2022/09/05 01:02:05;;;;;;;2.15;1.48;;;16.10;99.90;;;;;;5005087;28;20572;-79
2022/09/05 01:05:15;;;;;;;2.60;1.70;;;16.10;99.90;;;;;;5008120;28;20022;-79
2022/09/05 01:08:02;;;;;;;3.97;1.52;;;16.10;99.90;;;;;;5000140;28;20382;-79
2022/09/05 01:10:46;;;;;;;2.22;1.30;;;16.10;99.90;;;;;;4967416;28;20030;-79
2022/09/05 01:13:30;;;;;;;3.95;1.60;;;16.10;99.90;;;;;;4967371;28;20336;-78
2022/09/05 01:16:07;;;;;;;2.30;1.52;;;16.10;99.90;;;;;;4966538;28;20446;-79
2022/09/05 01:18:51;;;;;;;3.05;1.50;;;16.00;99.90;;;;;;4998291;28;20038;-79
2022/09/05 01:21:40;;;;;;;3.08;1.80;;;16.00;99.90;;;;;;4983686;28;20038;-79
2022/09/05 01:24:24;;;;;;;2.55;1.58;;;16.00;99.90;;;;;;4980629;28;20082;-79
2022/09/05 01:26:56;;;;;;;2.60;1.45;;;16.00;99.90;;;;;;4984166;28;20030;-79
2022/09/05 01:29:40;;;;;;;3.78;1.65;;;15.90;99.90;;;;;;4966781;28;20043;-79
2022/09/05 01:32:21;;;;;;;4.07;2.03;;;15.90;99.90;;;;;;4983701;28;20034;-80
2022/09/05 01:35:01;;;;;;;2.13;1.50;;;15.90;99.90;;;;;;4967575;28;20653;-79
2022/09/05 01:37:59;;;;;;;3.88;2.80;;;15.80;99.90;;;;;;4983756;28;20037;-79
2022/09/05 01:40:43;;;;;;;3.50;2.20;;;15.80;99.90;;;;;;4966249;28;20038;-79
2022/09/05 01:43:36;;;;;;;2.72;1.88;;;15.80;99.90;;;;;;5002226;28;20469;-79
2022/09/05 01:46:23;;;;;;;3.22;2.05;;;15.80;99.90;;;;;;5037402;28;20087;-79
2022/09/05 01:48:59;;;;;;;3.33;2.13;;;15.70;99.90;;;;;;5001434;28;20026;-79
2022/09/05 01:51:34;;;;;;;3.42;2.63;;;15.70;99.90;;;;;;5036481;28;20022;-79
2022/09/05 01:54:15;;;;;;;2.92;2.50;;;15.60;99.90;;;;;;5003079;28;20575;-82
2022/09/05 01:56:52;;;;;;;3.97;2.47;;;15.60;99.90;;;;;;5003056;28;20109;-82
2022/09/05 01:59:26;;;;;;;3.22;2.65;;;15.60;99.90;;;;;;5017099;28;20069;-81
2022/09/05 02:02:29;;;;;;;3.40;3.10;;;15.70;99.90;;;;;;5015965;28;20064;-82
2022/09/05 02:05:23;;;;;;;3.97;2.13;;;15.70;99.90;;;;;;5007696;28;20108;-83
2022/09/05 02:07:57;;;;;;;4.97;2.67;;;15.60;99.90;;;;;;5002380;28;20060;-82
2022/09/05 02:10:45;;;;;;;3.88;2.88;;;15.60;99.90;;;;;;5005418;28;20124;-82
2022/09/05 02:13:10;;;;;;;4.50;3.03;;;15.50;99.90;;;;;;5004560;28;20120;-79
2022/09/05 02:15:51;;;;;;;5.35;2.72;;;15.50;99.90;;;;;;4996989;28;20221;-79
2022/09/05 02:18:25;;;;;;;4.65;2.80;;;15.50;99.90;;;;;;4985276;28;20036;-81
2022/09/05 02:20:59;;;;;;;3.60;2.92;;;15.50;99.90;;;;;;5002166;28;20030;-81
2022/09/05 02:23:36;;;;;;;3.67;2.67;;;15.40;99.90;;;;;;5036871;28;20045;-81
2022/09/05 02:26:19;;;;;;;3.65;2.97;;;15.40;99.90;;;;;;5003464;28;20030;-82
2022/09/05 02:29:02;;;;;;;3.75;3.05;;;15.30;99.90;;;;;;5003149;28;20033;-82
2022/09/05 02:31:42;;;;;;;4.13;2.90;;;15.40;99.90;;;;;;4993971;28;20030;-82
2022/09/05 02:34:15;;;;;;;4.90;2.92;;;15.30;99.90;;;;;;4999351;28;20100;-81
2022/09/05 02:36:49;;;;;;;4.80;3.38;;;15.30;99.90;;;;;;5003071;28;20123;-79
2022/09/05 02:39:45;;;;;;;3.53;3.22;;;15.30;99.90;;;;;;5004785;28;20109;-80
2022/09/05 02:42:22;;;;;;;4.15;3.22;;;15.30;99.90;;;;;;5001011;28;20559;-81
2022/09/05 02:45:16;;;;;;;5.20;3.55;;;15.30;99.90;;;;;;5002168;28;20038;-81
2022/09/05 02:48:12;;;;;;;4.15;2.97;;;15.20;99.90;;;;;;5002658;28;20285;-81
2022/09/05 02:51:16;;;;;;;4.78;3.33;;;15.20;99.90;;;;;;5018745;28;20045;-81
2022/09/05 02:53:52;;;;;;;3.70;2.58;;;15.20;99.90;;;;;;4944808;28;20054;-82
2022/09/05 02:56:47;;;;;;;5.15;3.35;;;15.20;99.90;;;;;;4960703;28;20484;-82
2022/09/05 02:59:38;;;;;;;3.60;3.30;;;15.10;99.90;;;;;;4944382;28;20031;-82
2022/09/05 03:02:14;;;;;;;4.18;3.38;;;15.10;99.90;;;;;;4959914;28;20027;-82
2022/09/05 03:05:08;;;;;;;5.70;3.53;;;15.10;99.90;;;;;;4950669;28;20035;-82
2022/09/05 03:07:42;;;;;;;5.60;2.85;;;15.00;99.90;;;;;;4950076;28;20471;-79
2022/09/05 03:10:45;;;;;;;3.65;3.35;;;15.10;99.90;;;;;;4930299;28;20396;-82
2022/09/05 03:13:35;;;;;;;3.10;2.80;;;15.10;99.90;;;;;;4960208;28;20043;-81
2022/09/05 03:16:38;;;;;;;3.55;2.95;;;15.10;99.90;;;;;;4964329;28;20058;-81
2022/09/05 03:19:34;;;;;;;4.13;3.00;;;15.00;99.90;;;;;;4963712;28;20042;-83
2022/09/05 03:22:27;;;;;;;4.65;3.65;;;15.10;99.90;;;;;;4946608;28;20137;-81
2022/09/05 03:25:08;;;;;;;3.60;3.22;;;15.10;99.90;;;;;;4947648;28;20471;-82
2022/09/05 03:28:13;;;;;;;3.58;3.22;;;15.00;99.90;;;;;;4963961;28;20518;-79
2022/09/05 03:30:57;;;;;;;4.28;2.97;;;15.00;99.90;;;;;;4988453;28;20037;-79
2022/09/05 03:33:35;;;;;;;3.55;3.22;;;15.00;99.90;;;;;;5022004;28;20042;-79
2022/09/05 03:36:10;;;;;;;7.82;3.75;;;15.00;99.90;;;;;;5022269;28;20037;-78
2022/09/05 03:39:09;;;;;;;4.55;3.67;;;15.00;99.90;;;;;;5005663;28;20379;-79
2022/09/05 03:42:12;;;;;;;3.00;2.58;;;15.00;99.90;;;;;;5004580;28;20054;-80
2022/09/05 03:44:56;;;;;;;3.72;3.03;;;14.90;99.90;;;;;;5005043;28;20077;-79
2022/09/05 03:47:52;;;;;;;4.78;3.22;;;14.80;99.90;;;;;;5040448;28;20033;-82
2022/09/05 03:50:36;;;;;;;7.15;3.42;;;14.80;99.90;;;;;;5000254;28;20674;-81
2022/09/05 03:53:08;;;;;;;4.90;4.00;;;14.80;99.90;;;;;;5004192;28;20030;-79
2022/09/05 03:56:09;;;;;;;5.85;4.00;;;14.90;99.90;;;;;;5021348;28;20022;-82
2022/09/05 03:58:56;;;;;;;6.38;4.28;;;14.90;99.90;;;;;;5004825;28;20049;-80
2022/09/05 04:01:34;;;;;;;4.88;4.07;;;14.80;99.90;;;;;;5005068;28;20479;-79
2022/09/05 04:04:06;;;;;;;5.32;3.95;;;14.80;99.90;;;;;;5018098;28;20445;-82
2022/09/05 04:06:38;;;;;;;5.20;4.72;;;14.70;99.90;;;;;;5039629;28;20026;-82
2022/09/05 04:09:37;;;;;;;4.63;4.22;;;14.70;99.90;;;;;;5006641;28;20065;-79
2022/09/05 04:12:22;;;;;;;6.38;4.63;;;14.70;99.90;;;;;;5023048;28;20478;-82
2022/09/05 04:14:54;;;;;;;4.78;3.10;;;14.70;99.90;;;;;;5004828;28;20121;-82
2022/09/05 04:17:47;;;;;;;4.97;4.40;;;14.70;99.90;;;;;;5003628;28;20536;-79
2022/09/05 04:20:33;;;;;;;5.57;4.32;;;14.80;99.90;;;;;;5020575;28;20022;-80
2022/09/05 04:23:16;;;;;;;5.40;4.60;;;14.70;99.90;;;;;;5019322;28;20125;-82
2022/09/05 04:25:44;;;;;;;5.60;4.57;;;14.60;99.90;;;;;;5005081;28;20033;-82
2022/09/05 04:28:38;;;;;;;5.22;4.72;;;14.60;99.90;;;;;;5021508;28;20030;-82
2022/09/05 04:31:43;;;;;;;7.03;4.63;;;14.50;99.90;;;;;;5004678;28;20018;-82
2022/09/05 04:34:12;;;;;;;5.88;4.18;;;14.50;99.90;;;;;;4972043;28;20099;-81
2022/09/05 04:36:38;;;;;;;5.13;4.63;;;14.60;99.90;;;;;;5020314;28;20429;-82
2022/09/05 04:39:23;;;;;;;4.70;4.07;;;14.60;99.90;;;;;;4991916;28;20084;-82
2022/09/05 04:42:00;;;;;;;5.90;4.32;;;14.60;99.90;;;;;;5021707;28;20532;-82
2022/09/05 04:44:43;;;;;;;4.65;4.25;;;14.50;99.90;;;;;;5005282;28;20030;-82
2022/09/05 04:47:18;;;;;;;6.10;5.50;;;14.50;99.90;;;;;;5003030;28;20036;-81
2022/09/05 04:50:08;;;;;;;5.40;4.90;;;14.50;99.90;;;;;;5019629;28;20029;-81
2022/09/05 04:52:46;;;;;;;;;;;14.50;99.90;;;;;;5002991;28;20136;-81
2022/09/05 04:55:26;;;;;;;5.78;4.18;;;14.50;99.90;;;;;;5019926;28;19913;-82
2022/09/05 04:58:04;;;;;;;5.00;4.57;;;14.40;99.90;;;;;;5003445;28;20096;-82
2022/09/05 05:00:36;;;;;;;7.05;5.18;;;14.40;99.90;;;;;;4988378;28;20092;-78
2022/09/05 05:03:24;;;;;;;6.43;5.25;;;14.30;99.90;;;;;;5004501;28;20026;-80
2022/09/05 05:05:56;;;;;;;5.80;5.30;;;14.40;99.90;;;;;;5005217;28;20030;-80
2022/09/05 05:08:41;;;;;;;5.25;4.60;;;14.40;99.90;;;;;;5018183;28;20042;-79
2022/09/05 05:11:30;;;;;;;7.07;4.90;;;14.50;99.90;;;;;;5036798;28;20360;-79
2022/09/05 05:14:07;;;;;;;6.20;4.88;;;14.30;99.90;;;;;;5037112;28;20565;-79
2022/09/05 05:16:47;;;;;;;6.22;4.78;;;14.40;99.90;;;;;;5003139;28;20372;-80
2022/09/05 05:19:26;;;;;;;6.25;5.60;;;14.40;99.90;;;;;;5019522;28;20041;-79
2022/09/05 05:21:55;;;;;;;6.30;5.53;;;14.50;99.90;;;;;;5017324;28;20013;-79
2022/09/05 05:24:32;;;;;;;7.38;5.25;;;14.50;99.90;;;;;;5003856;28;20033;-79
2022/09/05 05:27:05;;;;;;;6.43;5.22;;;14.40;99.90;;;;;;5004206;28;20022;-80
2022/09/05 05:29:50;;;;;;;6.28;5.60;;;14.40;99.90;;;;;;5019256;28;20490;-80
2022/09/05 05:32:22;;;;;;;9.30;5.30;;;14.50;99.90;;;;;;5001603;28;20463;-80
2022/09/05 05:35:17;;;;;;;6.60;5.65;;;14.50;99.90;;;;;;5036673;28;20065;-81
2022/09/05 05:37:50;;;;;;;5.10;4.57;;;14.60;99.90;;;;;;5001866;28;20053;-80
2022/09/05 05:40:16;;;;;;;6.07;5.55;;;14.50;99.90;;;;;;5002182;28;20129;-80
2022/09/05 05:42:44;;;;;;;5.45;4.95;;;14.60;99.90;;;;;;4998476;28;20165;-82
2022/09/05 05:45:32;;;;;;;6.25;5.63;;;14.60;99.90;;;;;;5002965;28;20029;-80
2022/09/05 05:48:28;;;;;;;5.45;4.72;;;14.70;99.90;;;;;;5018740;28;20411;-79
2022/09/05 05:51:07;;;;;;;4.82;3.95;;;14.70;99.90;;;;;;5033551;28;20034;-81
2022/09/05 05:54:11;;;;;;;5.15;4.75;;;14.80;99.90;;;;;;4986311;28;20467;-80
2022/09/05 05:56:51;;;;;;;5.78;4.95;;;14.80;99.90;;;;;;5017071;28;20030;-80
2022/09/05 05:59:52;;;;;;;5.57;4.30;;;14.90;99.90;;;;;;5012690;28;20065;-80
2022/09/05 06:02:51;;;;;;;7.70;4.50;;;15.00;99.90;;;;;;5001680;28;20035;-80
2022/09/05 06:05:44;;;;;;;6.13;4.53;;;15.20;99.90;;;;;;5000427;28;20022;-80
2022/09/05 06:08:47;;;;;;;4.55;4.15;;;15.20;99.90;;;;;;4995487;28;20478;-80
2022/09/05 06:11:39;;;;;;;4.95;3.83;;;15.10;99.90;;;;;;4998066;28;20458;-81
2022/09/05 06:14:26;;;;;;;5.00;4.35;;;15.20;99.90;;;;;;5002208;28;20554;-81
2022/09/05 06:17:39;;;;;;;5.85;4.40;;;15.50;99.90;;;;;;5016078;28;20177;-81
2022/09/05 06:20:22;;;;;;;5.90;5.38;;;15.80;99.90;;;;;;4995326;28;20034;-81
2022/09/05 06:22:50;;;;;;;6.05;4.80;;;16.20;99.90;;;;;;4984880;28;20042;-81
2022/09/05 06:25:46;;;;;;;5.63;4.90;;;16.30;99.90;;;;;;5012928;28;20034;-81
2022/09/05 06:28:31;;;;;;;5.43;4.95;;;16.50;99.90;;;;;;4982060;28;20030;-80
2022/09/05 06:31:21;;;;;;;5.18;4.68;;;16.70;99.90;;;;;;4996428;28;20044;-81
2022/09/05 06:34:13;;;;;;;6.00;5.18;;;17.00;99.90;;;;;;4994995;28;20060;-81
2022/09/05 06:37:03;;;;;;;5.03;4.38;;;17.30;99.90;;;;;;5001874;28;20150;-80
2022/09/05 06:39:40;;;;;;;5.70;5.07;;;17.60;99.90;;;;;;4997437;28;20053;-80
2022/09/05 06:42:46;;;;;;;3.97;3.67;;;17.90;99.90;;;;;;4999456;28;20048;-80
2022/09/05 06:45:28;;;;;;;4.53;3.50;;;18.10;99.90;;;;;;4980832;28;20482;-81
2022/09/05 06:48:07;;;;;;;4.13;3.72;;;18.40;99.90;;;;;;4982361;28;20050;-81
2022/09/05 06:51:01;;;;;;;4.30;3.35;;;18.70;99.90;;;;;;5012655;28;20045;-80
2022/09/05 06:53:47;;;;;;;3.22;2.92;;;18.90;99.90;;;;;;4971990;28;20108;-79
2022/09/05 06:56:32;;;;;;;3.60;2.65;;;19.20;99.90;;;;;;4998944;28;20045;-80
2022/09/05 06:59:34;;;;;;;5.35;3.78;;;19.40;99.90;;;;;;5002780;28;20080;-80
2022/09/05 07:02:12;;;;;;;3.80;2.83;;;19.70;99.90;;;;;;4998276;28;20055;-80
2022/09/05 07:04:42;;;;;;;4.25;3.20;;;19.90;99.90;;;;;;4977801;28;20030;-80
2022/09/05 07:07:21;;;;;;;4.85;3.10;;;20.10;99.90;;;;;;5033481;28;20042;-81
2022/09/05 07:09:59;;;;;;;4.88;2.70;;;20.30;99.90;;;;;;4995570;28;20030;-80
2022/09/05 07:12:39;;;;;;;5.70;2.95;;;20.40;99.90;;;;;;4995028;28;20493;-81
2022/09/05 07:15:34;;;;;;;3.20;1.92;;;20.70;99.90;;;;;;5002752;28;20038;-81
2022/09/05 07:18:25;;;;;;;3.95;2.42;;;20.90;99.90;;;;;;4995198;28;20474;-81
2022/09/05 07:21:16;;;;;;;2.42;1.80;;;21.20;99.90;;;;;;4996997;28;20062;-81
2022/09/05 07:23:56;;;;;;;3.05;2.00;;;21.40;99.90;;;;;;4979883;28;20116;-82
2022/09/05 07:26:23;;;;;;;4.65;1.48;;;21.60;99.90;;;;;;5032939;28;20076;-81
2022/09/05 07:28:55;;;;;;;2.92;1.10;;;21.70;99.90;;;;;;4995295;28;20116;-81
2022/09/05 07:31:26;;;;;;;2.40;1.48;;;21.80;99.90;;;;;;4983650;28;20117;-81
2022/09/05 07:34:25;;;;;;;3.33;1.50;;;22.00;99.90;;;;;;4995827;28;20538;-82
2022/09/05 07:36:59;;;;;;;4.75;1.50;;;22.20;99.90;;;;;;4985369;28;20069;-81
2022/09/05 07:39:28;;;;;;;3.78;1.33;;;22.30;99.90;;;;;;5013827;28;20394;-81
2022/09/05 07:41:58;;;;;;;2.35;1.35;;;22.40;99.90;;;;;;5002246;28;20152;-81
2022/09/05 07:44:29;;;;;;;3.47;1.15;;;22.60;99.90;;;;;;4996050;28;20371;-82
2022/09/05 07:47:07;;;;;;;1.90;0.90;;;22.80;99.90;;;;;;5001374;28;20040;-81
2022/09/05 07:49:36;;;;;;;2.65;0.90;;;23.00;99.90;;;;;;5010198;28;20034;-82
2022/09/05 07:52:26;;;;;;;2.45;1.00;;;23.20;99.90;;;;;;4995113;28;20029;-81
2022/09/05 07:54:52;;;;;;;1.90;0.68;;;23.30;99.90;;;;;;5000473;28;20038;-82
2022/09/05 07:57:22;;;;;;;1.42;0.80;;;23.50;99.90;;;;;;4996914;28;20041;-83
2022/09/05 07:59:53;;;;;;;1.98;1.10;;;23.80;99.90;;;;;;5004520;28;20041;-82
2022/09/05 08:02:19;;;;;;;2.17;0.80;;;23.80;99.90;;;;;;5006709;28;20018;-82
2022/09/05 08:04:45;;;;;;;2.35;0.70;;;23.90;99.90;;;;;;5037195;28;20116;-82
2022/09/05 08:07:27;;;;;;;2.28;0.90;;;24.20;99.90;;;;;;5036334;28;20544;-83
2022/09/05 08:09:58;;;;;;;2.15;0.85;;;24.40;99.90;;;;;;4998680;28;20342;-83
2022/09/05 08:12:31;;;;;;;2.78;1.02;;;24.30;99.90;;;;;;5015009;28;20144;-82
2022/09/05 08:15:21;;;;;;;2.83;0.77;;;24.60;99.90;;;;;;5000703;28;20572;-82
2022/09/05 08:18:38;;;;;;;1.80;0.70;;;24.90;99.90;;;;;;5003448;28;20041;-84
2022/09/05 08:21:12;;;;;;;4.50;0.70;;;25.00;99.90;;;;;;4962614;28;20393;-82
2022/09/05 08:23:50;;;;;;;2.55;0.50;;;25.10;99.90;;;;;;5005797;28;20986;-83
2022/09/05 08:26:52;;;;;;;1.65;0.60;;;25.30;99.90;;;;;;5013915;28;20038;-82
2022/09/05 08:29:31;;;;;;;3.53;0.55;;;25.60;99.90;;;;;;4998079;28;20039;-82
2022/09/05 08:32:26;;;;;;;1.63;0.50;;;25.60;99.90;;;;;;5005324;28;20029;-82
2022/09/05 08:35:23;;;;;;;1.17;0.40;;;25.80;99.90;;;;;;4965829;28;20041;-82
2022/09/05 08:37:52;;;;;;;1.17;0.50;;;26.00;99.90;;;;;;5020744;28;20363;-82
2022/09/05 08:40:37;;;;;;;1.27;0.40;;;26.10;99.90;;;;;;5004144;28;20449;-82
2022/09/05 08:43:15;;;;;;;1.10;0.40;;;26.20;99.90;;;;;;4998066;28;20101;-82
2022/09/05 08:46:10;;;;;;;2.20;0.55;;;26.40;99.90;;;;;;4996431;28;20029;-82
2022/09/05 08:48:48;;;;;;;1.08;0.40;;;26.60;99.90;;;;;;4975294;28;20488;-83
2022/09/05 08:51:27;;;;;;;1.48;0.40;;;26.50;99.90;;;;;;4998270;28;20037;-82
2022/09/05 08:54:26;;;;;;;1.58;0.38;;;26.70;99.90;;;;;;5017997;28;20033;-82
2022/09/05 08:57:03;;;;;;;1.00;0.30;;;27.00;99.90;;;;;;4973472;28;20172;-82
2022/09/05 08:59:46;;;;;;;0.50;0.30;;;27.00;99.90;;;;;;4998701;28;20030;-83
2022/09/05 09:02:39;;;;;;;1.25;0.30;;;27.10;99.90;;;;;;4997639;28;20540;-82
2022/09/05 09:05:27;;;;;;;1.25;0.30;;;27.30;99.90;;;;;;5004579;28;20026;-82
2022/09/05 09:07:57;;;;;;;0.98;0.30;;;27.50;99.90;;;;;;5019800;28;20548;-83
2022/09/05 09:10:35;;;;;;;;;;;27.70;99.90;;;;;;5003252;28;20030;-82
2022/09/05 09:13:40;;;;;;;0.50;0.20;;;27.70;99.90;;;;;;5032586;28;19929;-82
2022/09/05 09:16:28;;;;;;;1.48;0.30;;;27.90;99.90;;;;;;5035579;28;20036;-81
2022/09/05 09:19:08;;;;;;;1.45;0.20;;;28.00;99.90;;;;;;4996755;28;20022;-81
2022/09/05 09:21:49;;;;;;;2.25;0.30;;;28.10;99.90;;;;;;5020420;28;20403;-82
2022/09/05 09:25:01;;;;;;;1.10;0.28;;;28.30;99.90;;;;;;4998966;28;20033;-82
2022/09/05 09:27:49;;;;;;;1.80;0.20;;;28.50;99.90;;;;;;4979092;28;20058;-82
2022/09/05 09:30:17;;;;;;;0.43;0.20;;;28.60;99.90;;;;;;4946540;28;20047;-82
2022/09/05 09:32:46;;;;;;;1.48;0.20;;;28.60;99.90;;;;;;4929173;28;20031;-82
2022/09/05 09:35:16;;;;;;;1.20;0.20;;;28.50;99.90;;;;;;4960276;28;20061;-82
2022/09/05 09:38:26;;;;;;;0.57;0.20;;;28.90;99.90;;;;;;4961163;28;20030;-82
2022/09/05 09:41:11;;;;;;;1.10;0.20;;;28.80;99.90;;;;;;4938680;28;20050;-81
2022/09/05 09:43:46;;;;;;;1.90;0.20;;;29.00;99.90;;;;;;4947237;28;20074;-82
2022/09/05 09:46:43;;;;;;;0.55;0.20;;;28.80;99.90;;;;;;4933820;28;20039;-81
2022/09/05 09:49:08;;;;;;;0.30;0.10;;;29.20;99.90;;;;;;4960904;28;20053;-83
2022/09/05 09:51:45;;;;;;;0.57;0.17;;;29.20;99.90;;;;;;4931623;28;20039;-82
2022/09/05 09:54:53;;;;;;;0.50;0.20;;;29.30;99.90;;;;;;4960348;28;20057;-84
2022/09/05 09:57:31;;;;;;;0.50;0.10;;;29.70;99.90;;;;;;4959589;28;20185;-82
2022/09/05 10:00:10;;;;;;;0.40;0.20;;;29.80;99.90;;;;;;4944107;28;20057;-82
2022/09/05 10:03:20;;;;;;;0.35;0.10;;;29.10;99.90;;;;;;5034252;28;20370;-82
2022/09/05 10:06:13;;;;;;;0.32;0.17;;;29.30;99.90;;;;;;5014018;28;20026;-82
2022/09/05 10:09:06;;;;;;;0.40;0.10;;;29.70;99.90;;;;;;5018386;28;20108;-82
2022/09/05 10:12:10;;;;;;;0.30;0.10;;;30.30;99.90;;;;;;4981124;28;20034;-82
2022/09/05 10:14:42;;;;;;;1.13;0.20;;;30.30;99.90;;;;;;5002239;28;20038;-82
2022/09/05 10:17:16;;;;;;;0.80;0.20;;;30.00;99.90;;;;;;5010332;28;20498;-81
2022/09/05 10:20:00;;;;;;;1.65;0.13;;;30.10;99.90;;;;;;4986907;28;20048;-81
2022/09/05 10:23:06;;;;;;;1.40;0.20;;;30.40;99.90;;;;;;4994748;28;20033;-84
2022/09/05 10:26:15;;;;;;;0.40;0.10;;;30.80;99.90;;;;;;4986759;28;20044;-82
2022/09/05 10:28:57;;;;;;;0.32;0.10;;;30.40;99.90;;;;;;4977925;28;20041;-82
2022/09/05 10:31:50;;;;;;;1.45;0.13;;;30.50;99.90;;;;;;5014757;28;20034;-82
2022/09/05 10:34:21;;;;;;;2.20;0.10;;;30.70;99.90;;;;;;4986107;28;20488;-83
2022/09/05 10:36:57;;;;;;;0.30;0.13;;;30.80;99.90;;;;;;4996814;28;20022;-84
2022/09/05 10:39:34;;;;;;;0.40;0.10;;;30.80;99.90;;;;;;4995955;28;20472;-83
2022/09/05 10:42:36;;;;;;;0.82;0.20;;;30.80;99.90;;;;;;5001984;28;20132;-84
2022/09/05 10:45:12;;;;;;;0.90;0.20;;;30.70;99.90;;;;;;5019389;28;20033;-84
2022/09/05 10:47:56;;;;;;;0.47;0.10;;;30.80;99.90;;;;;;5013425;28;20031;-84
2022/09/05 10:50:35;;;;;;;0.73;0.10;;;31.00;99.90;;;;;;4980705;28;20040;-82
2022/09/05 10:53:24;;;;;;;1.08;0.20;;;30.70;99.90;;;;;;4983400;28;20121;-84
2022/09/05 10:56:38;;;;;;;0.50;0.10;;;31.20;99.90;;;;;;5001364;28;20034;-81
2022/09/05 10:59:15;;;;;;;0.40;0.10;;;31.30;99.60;;;;;;4979547;28;20095;-83
2022/09/05 11:02:04;;;;;;;0.77;0.10;;;31.50;99.90;;;;;;4963575;28;20499;-84
2022/09/05 11:04:56;;;;;;;0.40;0.10;;;31.50;99.30;;;;;;4947930;28;20038;-82
2022/09/05 11:08:00;;;;;;;0.93;0.10;;;31.30;99.90;;;;;;4963744;28;20131;-82
2022/09/05 11:10:42;;;;;;;0.57;0.10;;;31.40;99.90;;;;;;4952060;28;20042;-82
2022/09/05 11:13:28;;;;;;;0.30;0.10;;;31.50;99.80;;;;;;4979367;28;20458;-81
2022/09/05 11:16:22;;;;;;;0.52;0.10;;;31.60;99.90;;;;;;4979499;28;20097;-83
2022/09/05 11:19:04;;;;;;;0.25;0.10;;;31.70;97.20;;;;;;4971929;28;20039;-82
2022/09/05 11:21:45;;;;;;;0.40;0.10;;;31.50;98.40;;;;;;4947554;28;20511;-83
2022/09/05 11:24:35;;;;;;;0.77;0.10;;;31.50;98.50;;;;;;4979293;28;20035;-82
2022/09/05 11:27:01;;;;;;;0.73;0.20;;;31.40;97.40;;;;;;4962806;28;20424;-83
2022/09/05 11:29:51;;;;;;;1.15;0.15;;;30.20;97.10;;;;;;4963340;28;20042;-85
2022/09/05 11:32:55;;;;;;;0.40;0.10;;;30.90;98.60;;;;;;4969510;28;20698;-85
2022/09/05 11:35:26;;;;;;;0.22;0.10;;;31.70;98.00;;;;;;5016851;28;20121;-87
2022/09/05 11:37:58;;;;;;;0.52;0.10;;;31.70;97.00;;;;;;5020542;28;20034;-85
2022/09/05 11:40:30;;;;;;;2.47;0.10;;;31.70;97.70;;;;;;5006231;28;20418;-81
2022/09/05 11:43:28;;;;;;;1.10;0.10;;;31.80;98.10;;;;;;4983613;28;20080;-85
2022/09/05 11:46:17;;;;;;;0.45;0.10;;;31.70;97.20;;;;;;5001026;28;20108;-81
2022/09/05 11:49:20;;;;;;;0.32;0.10;;;31.70;97.10;;;;;;5007032;28;20518;-82
2022/09/05 11:52:07;;;;;;;0.93;0.03;;;31.40;96.50;;;;;;5022513;28;20033;-85
2022/09/05 11:54:53;;;;;;;0.30;0.10;;;31.60;96.90;;;;;;5020998;28;20044;-82
2022/09/05 11:57:47;;;;;;;0.43;0.10;;;31.70;96.90;;;;;;5033756;28;20022;-82
2022/09/05 12:00:40;;;;;;;1.08;0.00;;;31.60;97.00;;;;;;5017818;28;20534;-82
2022/09/05 12:03:24;;;;;;;0.20;0.10;;;31.70;97.60;;;;;;5005814;28;20025;-82
2022/09/05 12:06:07;;;;;;;0.20;0.10;;;31.90;96.80;;;;;;4999925;28;20113;-82
2022/09/05 12:08:57;;;;;;;0.28;0.10;;;31.80;95.80;;;;;;4998688;28;20033;-87
2022/09/05 12:11:42;;;;;;;0.55;0.10;;;31.50;96.20;;;;;;5007718;28;20104;-81
2022/09/05 12:14:32;;;;;;;0.45;0.10;;;31.30;97.00;;;;;;5000751;28;20624;-81
2022/09/05 12:17:06;;;;;;;0.77;0.10;;;31.70;96.20;;;;;;4984816;28;20056;-81
2022/09/05 12:19:46;;;;;;;0.68;0.10;;;31.20;97.00;;;;;;5006657;28;20116;-84
2022/09/05 12:22:37;;;;;;;0.30;0.10;;;31.70;96.10;;;;;;4997505;28;20050;-82
2022/09/05 12:25:35;;;;;;;0.30;0.10;;;32.00;95.80;;;;;;5031345;28;20052;-82
2022/09/05 12:28:12;;;;;;;0.90;0.10;;;31.90;94.20;;;;;;5010470;28;20616;-80
2022/09/05 12:30:40;;;;;;;0.45;0.08;;;31.60;94.40;;;;;;5034118;28;20044;-80
2022/09/05 12:33:18;;;;;;;0.52;0.10;;;31.60;94.90;;;;;;5004583;28;20037;-81
2022/09/05 12:36:21;;;;;;;0.60;0.10;;;31.70;94.30;;;;;;5001159;28;20065;-82
2022/09/05 12:39:04;;;;;;;0.85;0.10;;;31.50;94.60;;;;;;4993648;28;20126;-84
2022/09/05 12:41:59;;;;;;;0.90;0.13;;;31.60;94.80;;;;;;5014396;28;20050;-81
2022/09/05 12:44:24;;;;;;;0.43;0.10;;;31.60;94.20;;;;;;4982662;28;20116;-82
2022/09/05 12:46:56;;;;;;;1.05;0.10;;;31.60;94.70;;;;;;5003071;28;20053;-81
2022/09/05 12:49:55;;;;;;;1.38;0.10;;;31.20;95.30;;;;;;5000245;28;20496;-82
2022/09/05 12:52:32;;;;;;;0.82;0.10;;;31.00;93.80;;;;;;4988631;28;20037;-85
2022/09/05 12:55:08;;;;;;;0.43;0.10;;;30.90;94.60;;;;;;5001824;28;20038;-85
2022/09/05 12:57:38;;;;;;;0.20;0.10;;;31.40;94.80;;;;;;4982184;28;20038;-84
2022/09/05 13:00:22;;;;;;;0.22;0.00;;;31.80;94.50;;;;;;5005744;28;20026;-82
2022/09/05 13:03:01;;;;;;;0.60;0.10;;;31.50;94.10;;;;;;5005343;28;20026;-84
2022/09/05 13:05:51;;;;;;;0.60;0.10;;;31.80;94.00;;;;;;4997694;28;20053;-82
2022/09/05 13:08:22;;;;;;;0.50;0.10;;;31.50;94.60;;;;;;5003460;28;20030;-81
2022/09/05 13:10:52;;;;;;;0.82;0.10;;;31.40;94.80;;;;;;4998982;28;20475;-81
2022/09/05 13:13:59;;;;;;;0.20;0.10;;;31.60;94.80;;;;;;5020773;28;20046;-85
2022/09/05 13:16:28;;;;;;;1.50;0.10;;;31.10;93.10;;;;;;5012670;28;20037;-84
2022/09/05 13:19:21;;;;;;;0.22;0.10;;;30.70;93.70;;;;;;5015171;28;20056;-85
2022/09/05 13:21:51;;;;;;;1.52;0.20;;;30.80;93.70;;;;;;4981491;28;20478;-86
2022/09/05 13:24:33;;;;;;;0.20;0.10;;;30.70;93.90;;;;;;5003577;28;20034;-82
2022/09/05 13:27:13;;;;;;;1.05;0.10;;;31.20;95.10;;;;;;5013103;28;20107;-85
2022/09/05 13:29:52;;;;;;;0.40;0.10;;;31.60;94.90;;;;;;5002012;28;20478;-83
2022/09/05 13:32:43;;;;;;;0.10;0.10;;;31.70;94.00;;;;;;5000934;28;20431;-81
2022/09/05 13:35:18;;;;;;;0.90;0.20;;;31.70;93.10;;;;;;5004981;28;20442;-83
2022/09/05 13:37:59;;;;;;;0.50;0.13;;;31.20;93.30;;;;;;5004561;28;20445;-82
2022/09/05 13:40:32;;;;;;;0.47;0.10;;;31.20;93.20;;;;;;5036088;28;20101;-82
2022/09/05 13:43:11;;;;;;;0.28;0.10;;;31.20;92.90;;;;;;5034852;28;20116;-80
2022/09/05 13:46:06;;;;;;;3.00;0.10;;;31.30;93.40;;;;;;5000018;28;20499;-80
2022/09/05 13:48:54;;;;;;;0.98;0.10;;;31.30;93.70;;;;;;4960905;28;20028;-82
2022/09/05 13:51:52;;;;;;;1.55;0.10;;;31.10;92.70;;;;;;4947145;28;20031;-81
2022/09/05 13:54:46;;;;;;;0.45;0.10;;;31.20;93.10;;;;;;4946671;28;20043;-81
2022/09/05 13:57:18;;;;;;;1.05;0.10;;;31.10;93.20;;;;;;4945042;28;20086;-80
2022/09/05 14:00:18;;;;;;;0.40;0.10;;;31.00;93.40;;;;;;4946470;28;20087;-81
2022/09/05 14:03:11;;;;;;;0.28;0.10;;;31.10;93.60;;;;;;4914474;29;20165;-80
2022/09/05 14:06:01;;;;;;;0.20;0.10;;;31.10;92.90;;;;;;4900513;29;20052;-83
2022/09/05 14:09:05;;;;;;;0.30;0.10;;;31.30;92.30;;;;;;4899621;29;20032;-81
2022/09/05 14:11:31;;;;;;;0.55;0.10;;;31.30;93.00;;;;;;4915144;29;20028;-81
2022/09/05 14:14:09;;;;;;;1.05;0.30;;;31.30;92.60;;;;;;4885029;29;20068;-81
2022/09/05 14:16:48;;;;;;;0.90;0.10;;;31.40;92.90;;;;;;4901584;29;20095;-79